createdAt,value
2022-11-21T00:01:26.022Z,2.30
2022-11-21T00:03:53.013Z,2.30
2022-11-21T00:11:14.929Z,2.30
2022-11-21T00:13:42.209Z,2.30
2022-11-21T00:16:15.401Z,2.20
2022-11-21T00:18:44.104Z,2.30
2022-11-21T00:21:15.997Z,2.30
2022-11-21T00:23:47.121Z,2.20
2022-11-21T00:26:16.256Z,2.20
2022-11-21T00:28:43.170Z,2.20
2022-11-21T00:31:18.894Z,2.20
2022-11-21T00:33:45.834Z,2.20
2022-11-21T00:36:12.684Z,2.20
2022-11-21T00:41:07.038Z,2.30
2022-11-21T00:46:03.114Z,2.40
2022-11-21T00:48:31.676Z,2.30
2022-11-21T00:51:00.507Z,2.40
2022-11-21T00:53:27.884Z,2.40
2022-11-21T00:55:54.819Z,2.30
2022-11-21T00:58:21.957Z,2.40
2022-11-21T01:00:48.937Z,2.40
2022-11-21T01:03:16.049Z,2.40
2022-11-21T01:08:10.281Z,2.40
2022-11-21T01:10:37.276Z,2.40
2022-11-21T01:13:04.167Z,2.30
2022-11-21T01:15:31.150Z,2.40
2022-11-21T01:17:58.161Z,2.40
2022-11-21T01:20:25.032Z,2.30
2022-11-21T01:22:51.958Z,2.30
2022-11-21T01:25:19.046Z,2.20
2022-11-21T01:27:45.910Z,2.30
2022-11-21T01:30:14.487Z,2.30
2022-11-21T01:32:41.368Z,2.30
2022-11-21T01:35:08.618Z,2.30
2022-11-21T01:37:35.852Z,2.40
2022-11-21T01:40:03.278Z,2.30
2022-11-21T01:42:30.233Z,2.30
2022-11-21T01:44:57.122Z,2.20
2022-11-21T01:47:24.052Z,2.20
2022-11-21T01:49:52.508Z,2.10
2022-11-21T01:52:30.982Z,2.20
2022-11-21T01:55:06.864Z,2.10
2022-11-21T01:57:43.669Z,2.00
2022-11-21T02:00:21.959Z,2.00
2022-11-21T02:02:55.349Z,1.90
2022-11-21T02:05:35.894Z,1.90
2022-11-21T02:08:07.908Z,1.90
2022-11-21T02:10:38.172Z,1.80
2022-11-21T02:13:05.224Z,1.80
2022-11-21T02:15:32.204Z,1.70
2022-11-21T02:17:59.126Z,1.70
2022-11-21T02:20:29.091Z,1.60
2022-11-21T02:23:26.729Z,1.60
2022-11-21T02:25:54.170Z,1.50
2022-11-21T02:28:25.485Z,1.60
2022-11-21T02:30:52.556Z,1.50
2022-11-21T02:35:57.915Z,1.60
2022-11-21T02:38:31.953Z,1.50
2022-11-21T02:41:28.545Z,1.50
2022-11-21T02:44:18.482Z,1.50
2022-11-21T02:46:51.940Z,1.50
2022-11-21T02:49:34.922Z,1.30
2022-11-21T02:56:57.525Z,1.30
2022-11-21T02:59:24.560Z,1.20
2022-11-21T03:06:46.145Z,1.20
2022-11-21T03:09:13.134Z,1.20
2022-11-21T03:19:01.846Z,1.10
2022-11-21T03:21:28.741Z,1.10
2022-11-21T03:23:55.797Z,1.10
2022-11-21T03:26:22.799Z,1.00
2022-11-21T03:28:49.636Z,1.00
2022-11-21T03:36:11.181Z,0.90
2022-11-21T03:41:26.423Z,0.80
2022-11-21T03:43:53.743Z,0.80
2022-11-21T03:48:47.985Z,0.80
2022-11-21T03:53:42.304Z,0.70
2022-11-21T03:58:36.986Z,0.70
2022-11-21T04:01:04.625Z,0.60
2022-11-21T04:03:32.432Z,0.60
2022-11-21T04:05:59.338Z,0.70
2022-11-21T04:10:55.021Z,0.80
2022-11-21T04:18:17.100Z,0.80
2022-11-21T04:20:45.144Z,0.90
2022-11-21T04:30:35.052Z,0.90
2022-11-21T04:35:29.271Z,1.00
2022-11-21T04:40:23.693Z,1.00
2022-11-21T04:45:18.309Z,1.10
2022-11-21T04:47:46.770Z,1.10
2022-11-21T04:50:16.265Z,1.10
2022-11-21T04:57:42.998Z,1.20
2022-11-21T05:00:10.507Z,1.20
2022-11-21T05:02:37.514Z,1.20
2022-11-21T05:09:59.266Z,1.20
2022-11-21T05:15:12.019Z,1.30
2022-11-21T05:20:07.570Z,1.30
2022-11-21T05:27:28.935Z,1.50
2022-11-21T05:32:23.324Z,1.40
2022-11-21T05:37:18.214Z,1.30
2022-11-21T05:39:45.152Z,1.30
2022-11-21T05:42:12.190Z,1.30
2022-11-21T05:47:06.376Z,1.30
2022-11-21T05:49:33.292Z,1.30
2022-11-21T05:52:00.098Z,1.20
2022-11-21T05:56:54.672Z,1.20
2022-11-21T05:59:21.484Z,1.30
2022-11-21T06:02:06.660Z,1.40
2022-11-21T06:04:34.905Z,1.30
2022-11-21T06:07:01.878Z,1.40
2022-11-21T06:14:23.492Z,1.50
2022-11-21T06:16:50.909Z,1.50
2022-11-21T06:19:17.799Z,1.40
2022-11-21T06:21:44.692Z,1.50
2022-11-21T06:26:39.192Z,1.40
2022-11-21T06:29:06.052Z,1.30
2022-11-21T06:36:27.717Z,1.40
2022-11-21T06:38:56.143Z,1.40
2022-11-21T06:41:25.782Z,1.40
2022-11-21T06:43:53.328Z,1.40
2022-11-21T06:46:20.263Z,1.40
2022-11-21T06:51:19.652Z,1.50
2022-11-21T06:53:48.311Z,1.50
2022-11-21T06:58:42.763Z,1.50
2022-11-21T07:01:11.042Z,1.50
2022-11-21T07:03:38.027Z,1.60
2022-11-21T07:06:06.279Z,1.60
2022-11-21T07:08:38.003Z,1.60
2022-11-21T07:11:24.742Z,1.60
2022-11-21T07:13:52.878Z,1.60
2022-11-21T07:26:10.485Z,1.70
2022-11-21T07:28:37.420Z,1.80
2022-11-21T07:31:10.008Z,1.70
2022-11-21T07:33:40.030Z,1.60
2022-11-21T07:41:01.691Z,1.70
2022-11-21T07:43:28.574Z,1.60
2022-11-21T07:45:56.562Z,1.70
2022-11-21T07:50:50.785Z,1.60
2022-11-21T07:55:45.084Z,1.60
2022-11-21T07:58:15.233Z,1.70
2022-11-21T08:05:41.869Z,1.60
2022-11-21T08:08:10.807Z,1.60
2022-11-21T08:10:44.272Z,1.70
2022-11-21T08:13:12.352Z,1.70
2022-11-21T08:15:40.307Z,1.70
2022-11-21T08:18:20.547Z,1.70
2022-11-21T08:20:47.826Z,1.80
2022-11-21T08:25:43.006Z,1.90
2022-11-21T08:28:12.223Z,1.80
2022-11-21T08:30:40.769Z,1.90
2022-11-21T08:33:08.187Z,1.80
2022-11-21T08:35:40.263Z,1.90
2022-11-21T08:38:07.204Z,2.00
2022-11-21T08:40:35.369Z,2.00
2022-11-21T08:43:08.805Z,2.00
2022-11-21T08:45:37.670Z,2.00
2022-11-21T08:48:10.029Z,2.00
2022-11-21T08:50:36.993Z,2.00
2022-11-21T08:53:04.088Z,2.00
2022-11-21T08:55:31.428Z,2.00
2022-11-21T08:57:58.872Z,2.00
2022-11-21T09:00:26.257Z,2.00
2022-11-21T09:02:53.271Z,1.80
2022-11-21T09:05:20.217Z,1.90
2022-11-21T09:10:15.784Z,1.90
2022-11-21T09:12:43.220Z,1.90
2022-11-21T09:15:30.239Z,1.90
2022-11-21T09:18:04.534Z,1.90
2022-11-21T09:20:34.049Z,1.90
2022-11-21T09:23:19.424Z,1.90
2022-11-21T09:28:15.133Z,2.00
2022-11-21T09:30:43.043Z,2.10
2022-11-21T09:33:16.984Z,2.10
2022-11-21T09:35:44.289Z,2.10
2022-11-21T09:38:11.486Z,2.10
2022-11-21T09:40:46.514Z,2.20
2022-11-21T09:44:02.058Z,2.20
2022-11-21T09:46:37.251Z,2.20
2022-11-21T09:49:12.277Z,2.10
2022-11-21T09:51:41.356Z,2.10
2022-11-21T09:54:21.378Z,2.10
2022-11-21T09:59:29.742Z,2.20
2022-11-21T10:01:57.561Z,2.20
2022-11-21T10:04:26.642Z,2.20
2022-11-21T10:07:03.854Z,2.30
2022-11-21T10:09:55.103Z,2.30
2022-11-21T10:12:40.702Z,2.30
2022-11-21T10:15:31.919Z,2.30
2022-11-21T10:18:31.937Z,2.40
2022-11-21T10:21:30.658Z,2.30
2022-11-21T10:24:24.773Z,2.30
2022-11-21T10:27:15.159Z,2.30
2022-11-21T10:29:57.833Z,2.30
2022-11-21T10:32:41.704Z,0.00
2022-11-21T10:35:35.964Z,2.40
2022-11-21T10:38:31.204Z,2.40
2022-11-21T10:41:09.392Z,2.40
2022-11-21T10:44:02.776Z,2.40
2022-11-21T10:46:29.657Z,2.50
2022-11-21T10:49:00.860Z,2.50
2022-11-21T10:51:45.575Z,2.50
2022-11-21T10:54:32.383Z,2.50
2022-11-21T10:57:18.923Z,2.60
2022-11-21T11:00:12.371Z,2.60
2022-11-21T11:03:06.134Z,2.60
2022-11-21T11:05:36.387Z,2.70
2022-11-21T11:08:13.002Z,2.70
2022-11-21T11:10:45.997Z,2.70
2022-11-21T11:13:50.871Z,2.80
2022-11-21T11:16:21.850Z,4.70
2022-11-21T11:19:03.296Z,2.80
2022-11-21T11:21:41.932Z,2.80
2022-11-21T11:24:12.087Z,2.80
2022-11-21T11:26:49.284Z,2.80
2022-11-21T11:29:23.459Z,2.90
2022-11-21T11:31:59.499Z,2.90
2022-11-21T11:34:42.266Z,2.70
2022-11-21T11:37:15.204Z,2.70
2022-11-21T11:39:50.700Z,2.80
2022-11-21T11:43:16.765Z,2.80
2022-11-21T11:46:36.319Z,2.90
2022-11-21T11:49:20.908Z,2.90
2022-11-21T11:51:54.824Z,3.10
2022-11-21T11:54:38.191Z,3.10
2022-11-21T11:57:05.405Z,3.20
2022-11-21T11:59:42.619Z,3.40
2022-11-21T12:02:20.193Z,3.40
2022-11-21T12:05:09.600Z,3.50
2022-11-21T12:11:01.366Z,3.60
2022-11-21T12:13:30.092Z,3.80
2022-11-21T12:16:07.165Z,3.70
2022-11-21T12:19:08.222Z,3.60
2022-11-21T12:21:35.142Z,3.70
2022-11-21T12:24:08.464Z,3.70
2022-11-21T12:26:50.653Z,3.80
2022-11-21T12:29:45.247Z,3.80
2022-11-21T12:32:25.397Z,3.70
2022-11-21T12:35:22.823Z,3.60
2022-11-21T12:38:13.914Z,3.60
2022-11-21T12:40:56.784Z,3.60
2022-11-21T12:43:57.687Z,3.60
2022-11-21T12:46:36.189Z,3.60
2022-11-21T12:49:56.249Z,3.60
2022-11-21T12:52:58.792Z,3.60
2022-11-21T12:55:41.745Z,3.60
2022-11-21T12:58:32.653Z,3.50
2022-11-21T13:01:21.979Z,3.60
2022-11-21T13:04:06.212Z,3.50
2022-11-21T13:06:40.486Z,3.50
2022-11-21T13:09:15.031Z,3.50
2022-11-21T13:12:00.211Z,3.50
2022-11-21T13:14:57.866Z,3.50
2022-11-21T13:17:45.648Z,3.50
2022-11-21T13:20:23.712Z,3.50
2022-11-21T13:22:59.474Z,3.50
2022-11-21T13:25:32.541Z,3.50
2022-11-21T13:28:17.504Z,3.50
2022-11-21T13:30:56.268Z,3.60
2022-11-21T13:33:35.429Z,3.60
2022-11-21T13:36:30.121Z,3.60
2022-11-21T13:39:16.843Z,2.10
2022-11-21T13:42:05.108Z,3.70
2022-11-21T13:44:32.054Z,3.70
2022-11-21T13:47:29.975Z,3.80
2022-11-21T13:50:28.441Z,3.80
2022-11-21T13:53:18.543Z,3.90
2022-11-21T13:55:55.893Z,3.90
2022-11-21T13:58:22.628Z,3.90
2022-11-21T14:01:23.422Z,4.00
2022-11-21T14:04:31.772Z,4.00
2022-11-21T14:07:23.391Z,5.40
2022-11-21T14:09:53.507Z,3.90
2022-11-21T14:12:44.766Z,3.80
2022-11-21T14:15:43.780Z,3.80
2022-11-21T14:18:25.387Z,3.80
2022-11-21T14:21:00.935Z,3.80
2022-11-21T14:23:33.441Z,3.70
2022-11-21T14:26:05.092Z,3.70
2022-11-21T14:28:34.793Z,3.70
2022-11-21T14:31:07.552Z,3.70
2022-11-21T14:33:36.413Z,3.70
2022-11-21T14:36:25.993Z,3.70
2022-11-21T14:39:34.712Z,3.60
2022-11-21T14:41:50.142Z,3.60
2022-11-21T14:44:19.816Z,4.40
2022-11-21T14:46:48.183Z,3.60
2022-11-21T14:49:17.732Z,3.60
2022-11-21T14:51:48.897Z,3.50
2022-11-21T14:54:30.778Z,3.50
2022-11-21T14:57:01.828Z,3.50
2022-11-21T14:59:33.201Z,3.40
2022-11-21T15:02:20.633Z,3.40
2022-11-21T15:04:51.048Z,3.50
2022-11-21T15:07:31.617Z,3.40
2022-11-21T15:13:11.678Z,3.40
2022-11-21T15:15:43.872Z,3.40
2022-11-21T15:18:41.108Z,3.40
2022-11-21T15:21:13.642Z,3.40
2022-11-21T15:23:43.003Z,5.70
2022-11-21T15:26:32.549Z,3.40
2022-11-21T15:29:00.995Z,3.40
2022-11-21T15:31:28.075Z,1.30
2022-11-21T15:34:34.802Z,3.40
2022-11-21T15:37:08.485Z,3.40
2022-11-21T15:39:36.073Z,3.40
2022-11-21T15:42:37.526Z,3.40
2022-11-21T15:45:25.612Z,3.40
2022-11-21T15:47:53.112Z,3.40
2022-11-21T15:50:24.508Z,3.40
2022-11-21T15:52:52.650Z,3.40
2022-11-21T15:55:29.088Z,3.40
2022-11-21T15:57:56.035Z,3.40
2022-11-21T16:00:23.144Z,3.40
2022-11-21T16:02:50.107Z,4.10
2022-11-21T16:05:16.966Z,3.40
2022-11-21T16:07:44.010Z,3.40
2022-11-21T16:10:18.263Z,3.40
2022-11-21T16:12:48.621Z,3.30
2022-11-21T16:15:15.667Z,4.40
2022-11-21T16:17:45.749Z,3.20
2022-11-21T16:20:14.417Z,4.60
2022-11-21T16:22:47.156Z,3.20
2022-11-21T16:25:15.425Z,3.20
2022-11-21T16:27:42.432Z,3.10
2022-11-21T16:30:09.873Z,3.10
2022-11-21T16:32:36.882Z,3.00
2022-11-21T16:35:05.443Z,3.10
2022-11-21T16:37:33.136Z,3.10
2022-11-21T16:40:00.182Z,3.10
2022-11-21T16:42:27.130Z,3.00
2022-11-21T16:44:54.016Z,3.10
2022-11-21T16:49:49.481Z,3.10
2022-11-21T16:52:18.238Z,3.10
2022-11-21T16:54:45.289Z,3.10
2022-11-21T16:57:12.282Z,3.00
2022-11-21T16:59:39.212Z,3.00
2022-11-21T17:02:06.170Z,3.10
2022-11-21T17:04:34.875Z,3.00
2022-11-21T17:07:02.590Z,3.00
2022-11-21T17:09:29.534Z,3.00
2022-11-21T17:11:59.490Z,3.00
2022-11-21T17:14:26.786Z,3.10
2022-11-21T17:16:54.118Z,3.10
2022-11-21T17:19:21.084Z,2.90
2022-11-21T17:21:47.926Z,3.00
2022-11-21T17:24:15.025Z,3.00
2022-11-21T17:26:41.939Z,3.10
2022-11-21T17:29:09.673Z,6.10
2022-11-21T17:31:36.561Z,3.10
2022-11-21T17:34:03.546Z,3.00
2022-11-21T17:36:34.234Z,5.90
2022-11-21T17:39:01.237Z,6.90
2022-11-21T17:41:28.145Z,6.00
2022-11-21T17:43:59.701Z,6.80
2022-11-21T17:46:28.248Z,3.00
2022-11-21T17:48:58.380Z,3.20
2022-11-21T17:51:34.585Z,5.80
2022-11-21T17:54:02.426Z,3.20
2022-11-21T17:56:33.394Z,3.10
2022-11-21T17:59:01.015Z,3.10
2022-11-21T18:01:28.923Z,3.10
2022-11-21T18:03:57.913Z,3.10
2022-11-21T18:06:28.259Z,3.00
2022-11-21T18:08:58.657Z,3.10
2022-11-21T18:11:34.579Z,3.00
2022-11-21T18:14:06.379Z,3.10
2022-11-21T18:16:34.081Z,3.20
2022-11-21T18:19:01.538Z,3.10
2022-11-21T18:21:31.360Z,3.10
2022-11-21T18:24:00.218Z,3.00
2022-11-21T18:26:30.885Z,3.10
2022-11-21T18:31:50.852Z,3.20
2022-11-21T18:34:17.942Z,3.10
2022-11-21T18:36:45.082Z,3.10
2022-11-21T18:39:15.181Z,3.00
2022-11-21T18:41:43.584Z,3.10
2022-11-21T18:44:13.563Z,5.60
2022-11-21T18:46:43.149Z,5.30
2022-11-21T18:49:10.453Z,3.10
2022-11-21T18:51:37.586Z,3.10
2022-11-21T18:54:08.368Z,3.20
2022-11-21T18:56:37.365Z,3.00
2022-11-21T18:59:06.228Z,3.10
2022-11-21T19:01:34.599Z,3.10
2022-11-21T19:04:01.556Z,3.10
2022-11-21T19:06:29.144Z,3.10
2022-11-21T19:08:58.091Z,3.10
2022-11-21T19:11:28.470Z,3.10
2022-11-21T19:13:57.265Z,6.00
2022-11-21T19:16:27.049Z,3.20
2022-11-21T19:19:26.349Z,5.30
2022-11-21T19:21:42.672Z,3.20
2022-11-21T19:24:14.757Z,3.20
2022-11-21T19:26:42.864Z,0.90
2022-11-21T19:29:10.935Z,3.10
2022-11-21T19:31:44.620Z,3.20
2022-11-21T19:34:16.487Z,3.10
2022-11-21T19:36:45.134Z,3.20
2022-11-21T19:39:13.162Z,0.90
2022-11-21T19:41:40.913Z,3.00
2022-11-21T19:44:08.098Z,5.40
2022-11-21T19:46:38.645Z,5.40
2022-11-21T19:49:07.419Z,3.10
2022-11-21T19:51:38.420Z,5.60
2022-11-21T19:54:11.346Z,6.00
2022-11-21T19:56:38.894Z,6.10
2022-11-21T19:59:05.826Z,6.00
2022-11-21T20:01:34.894Z,5.90
2022-11-21T20:04:04.309Z,2.90
2022-11-21T20:06:38.225Z,3.10
2022-11-21T20:09:15.625Z,5.10
2022-11-21T20:11:45.943Z,3.20
2022-11-21T20:14:19.862Z,6.00
2022-11-21T20:16:49.584Z,3.20
2022-11-21T20:19:19.473Z,3.10
2022-11-21T20:21:47.587Z,3.20
2022-11-21T20:24:15.253Z,2.90
2022-11-21T20:26:42.875Z,3.20
2022-11-21T20:29:13.339Z,3.20
2022-11-21T20:31:40.801Z,3.10
2022-11-21T20:34:12.891Z,3.10
2022-11-21T20:36:40.878Z,3.20
2022-11-21T20:39:17.441Z,6.60
2022-11-21T20:41:46.405Z,3.20
2022-11-21T20:47:07.720Z,3.30
2022-11-21T20:49:35.188Z,3.30
2022-11-21T20:54:49.285Z,3.20
2022-11-21T20:57:16.443Z,3.20
2022-11-21T20:59:43.696Z,5.70
2022-11-21T21:02:12.391Z,3.20
2022-11-21T21:04:39.656Z,3.20
2022-11-21T21:07:06.724Z,5.60
2022-11-21T21:09:33.709Z,3.30
2022-11-21T21:14:28.003Z,3.30
2022-11-21T21:16:55.060Z,3.20
2022-11-21T21:19:22.261Z,5.70
2022-11-21T21:21:49.401Z,4.80
2022-11-21T21:24:17.136Z,3.30
2022-11-21T21:26:47.241Z,6.20
2022-11-21T21:29:18.571Z,3.40
2022-11-21T21:31:51.129Z,3.30
2022-11-21T21:34:20.768Z,3.30
2022-11-21T21:36:48.122Z,3.30
2022-11-21T21:39:15.394Z,3.30
2022-11-21T21:41:47.029Z,3.40
2022-11-21T21:44:15.461Z,5.50
2022-11-21T21:46:42.801Z,3.30
2022-11-21T21:49:10.168Z,3.30
2022-11-21T21:51:37.851Z,3.40
2022-11-21T21:54:06.389Z,5.80
2022-11-21T21:56:34.126Z,3.40
2022-11-21T21:59:01.247Z,3.70
2022-11-21T22:01:31.066Z,3.50
2022-11-21T22:04:01.793Z,3.30
2022-11-21T22:06:29.763Z,5.50
2022-11-21T22:08:57.314Z,4.20
2022-11-21T22:11:33.297Z,3.40
2022-11-21T22:14:04.321Z,5.00
2022-11-21T22:16:31.878Z,5.70
2022-11-21T22:18:59.456Z,6.70
2022-11-21T22:21:37.717Z,3.40
2022-11-21T22:24:25.245Z,3.30
2022-11-21T22:26:53.205Z,3.30
2022-11-21T22:29:20.153Z,2.90
2022-11-21T22:31:47.285Z,3.40
2022-11-21T22:34:14.864Z,3.20
2022-11-21T22:36:43.031Z,6.90
2022-11-21T22:39:10.084Z,3.20
2022-11-21T22:41:37.124Z,3.20
2022-11-21T22:44:04.156Z,3.30
2022-11-21T22:46:32.035Z,3.30
2022-11-21T22:48:59.298Z,3.30
2022-11-21T22:51:29.569Z,3.40
2022-11-21T22:53:57.143Z,3.20
2022-11-21T22:56:25.191Z,3.10
2022-11-21T22:58:52.700Z,3.10
2022-11-21T23:01:23.052Z,3.10
2022-11-21T23:03:50.153Z,4.50
2022-11-21T23:06:21.335Z,3.10
2022-11-21T23:11:19.474Z,3.10
2022-11-21T23:13:47.956Z,3.00
2022-11-21T23:16:16.454Z,3.10
2022-11-21T23:18:43.626Z,3.00
2022-11-21T23:21:11.676Z,3.10
2022-11-21T23:23:38.732Z,3.20
2022-11-21T23:26:06.296Z,3.10
2022-11-21T23:28:33.881Z,3.00
2022-11-21T23:31:00.872Z,6.10
2022-11-21T23:33:28.095Z,3.20
2022-11-21T23:35:55.344Z,3.10
2022-11-21T23:38:22.334Z,3.40
2022-11-21T23:40:50.054Z,3.10
2022-11-21T23:43:20.499Z,3.20
2022-11-21T23:45:52.199Z,3.10
2022-11-21T23:48:20.097Z,3.00
2022-11-21T23:50:48.359Z,3.10
2022-11-21T23:53:15.347Z,5.90
2022-11-21T23:55:43.941Z,3.10
2022-11-21T23:58:12.302Z,3.20
